sensor_id;sensor_type;location;lat;lon;timestamp;P1;durP1;ratioP1;P2;durP2;ratioP2
3259;SDS011;68938;48.150;14.004;2023-07-28T00:00:23;3.70;;;3.40;;
3259;SDS011;68938;48.150;14.004;2023-07-28T00:02:50;3.10;;;3.00;;
3259;SDS011;68938;48.150;14.004;2023-07-28T00:05:19;3.77;;;3.40;;
3259;SDS011;68938;48.150;14.004;2023-07-28T00:07:48;3.30;;;3.00;;
3259;SDS011;68938;48.150;14.004;2023-07-28T00:10:16;3.10;;;2.90;;
3259;SDS011;68938;48.150;14.004;2023-07-28T00:12:45;4.00;;;3.70;;
3259;SDS011;68938;48.150;14.004;2023-07-28T00:15:12;2.93;;;2.80;;
3259;SDS011;68938;48.150;14.004;2023-07-28T00:17:39;3.77;;;3.43;;
3259;SDS011;68938;48.150;14.004;2023-07-28T00:20:07;3.50;;;3.07;;
3259;SDS011;68938;48.150;14.004;2023-07-28T00:22:35;3.03;;;2.83;;
3259;SDS011;68938;48.150;14.004;2023-07-28T00:25:03;3.10;;;2.80;;
3259;SDS011;68938;48.150;14.004;2023-07-28T00:27:31;4.07;;;3.77;;
3259;SDS011;68938;48.150;14.004;2023-07-28T00:30:01;3.93;;;3.47;;
3259;SDS011;68938;48.150;14.004;2023-07-28T00:32:28;3.70;;;3.50;;
3259;SDS011;68938;48.150;14.004;2023-07-28T00:34:57;3.47;;;3.27;;
3259;SDS011;68938;48.150;14.004;2023-07-28T00:37:29;3.60;;;3.30;;
3259;SDS011;68938;48.150;14.004;2023-07-28T00:39:58;4.07;;;3.77;;
3259;SDS011;68938;48.150;14.004;2023-07-28T00:42:25;4.20;;;3.90;;
3259;SDS011;68938;48.150;14.004;2023-07-28T00:44:52;4.23;;;3.90;;
3259;SDS011;68938;48.150;14.004;2023-07-28T00:47:21;3.20;;;3.00;;
3259;SDS011;68938;48.150;14.004;2023-07-28T00:49:51;5.10;;;3.70;;
3259;SDS011;68938;48.150;14.004;2023-07-28T00:52:21;3.60;;;3.13;;
3259;SDS011;68938;48.150;14.004;2023-07-28T00:54:47;4.23;;;3.40;;
3259;SDS011;68938;48.150;14.004;2023-07-28T00:57:15;3.60;;;3.30;;
3259;SDS011;68938;48.150;14.004;2023-07-28T00:59:42;4.40;;;4.10;;
3259;SDS011;68938;48.150;14.004;2023-07-28T01:02:14;3.80;;;3.50;;
3259;SDS011;68938;48.150;14.004;2023-07-28T01:04:41;4.00;;;3.70;;
3259;SDS011;68938;48.150;14.004;2023-07-28T01:07:13;4.30;;;3.90;;
3259;SDS011;68938;48.150;14.004;2023-07-28T01:10:08;4.07;;;3.67;;
3259;SDS011;68938;48.150;14.004;2023-07-28T01:12:41;3.80;;;3.47;;
3259;SDS011;68938;48.150;14.004;2023-07-28T01:15:09;3.63;;;3.43;;
3259;SDS011;68938;48.150;14.004;2023-07-28T01:17:37;4.33;;;3.93;;
3259;SDS011;68938;48.150;14.004;2023-07-28T01:20:04;4.30;;;3.97;;
3259;SDS011;68938;48.150;14.004;2023-07-28T01:28:40;3.60;;;3.40;;
3259;SDS011;68938;48.150;14.004;2023-07-28T01:31:10;3.90;;;3.60;;
3259;SDS011;68938;48.150;14.004;2023-07-28T01:33:37;4.80;;;4.40;;
3259;SDS011;68938;48.150;14.004;2023-07-28T01:36:06;4.80;;;3.80;;
3259;SDS011;68938;48.150;14.004;2023-07-28T01:38:36;4.27;;;3.93;;
3259;SDS011;68938;48.150;14.004;2023-07-28T01:41:03;5.00;;;4.60;;
3259;SDS011;68938;48.150;14.004;2023-07-28T01:43:30;4.50;;;4.20;;
3259;SDS011;68938;48.150;14.004;2023-07-28T01:45:59;4.70;;;4.30;;
3259;SDS011;68938;48.150;14.004;2023-07-28T01:48:27;4.60;;;4.20;;
3259;SDS011;68938;48.150;14.004;2023-07-28T01:50:56;6.27;;;4.17;;
3259;SDS011;68938;48.150;14.004;2023-07-28T01:53:24;8.33;;;4.33;;
3259;SDS011;68938;48.150;14.004;2023-07-28T01:55:52;4.20;;;3.83;;
3259;SDS011;68938;48.150;14.004;2023-07-28T01:58:19;4.80;;;4.40;;
3259;SDS011;68938;48.150;14.004;2023-07-28T02:00:48;4.30;;;3.90;;
3259;SDS011;68938;48.150;14.004;2023-07-28T02:03:15;4.00;;;3.70;;
3259;SDS011;68938;48.150;14.004;2023-07-28T02:05:42;5.03;;;4.43;;
3259;SDS011;68938;48.150;14.004;2023-07-28T02:08:10;5.13;;;4.77;;
3259;SDS011;68938;48.150;14.004;2023-07-28T02:10:37;4.07;;;3.87;;
3259;SDS011;68938;48.150;14.004;2023-07-28T02:13:04;4.00;;;3.80;;
3259;SDS011;68938;48.150;14.004;2023-07-28T02:15:34;4.30;;;4.00;;
3259;SDS011;68938;48.150;14.004;2023-07-28T02:18:06;5.20;;;4.80;;
3259;SDS011;68938;48.150;14.004;2023-07-28T02:20:34;4.93;;;4.10;;
3259;SDS011;68938;48.150;14.004;2023-07-28T02:23:02;4.27;;;3.97;;
3259;SDS011;68938;48.150;14.004;2023-07-28T02:25:30;4.70;;;4.30;;
3259;SDS011;68938;48.150;14.004;2023-07-28T02:27:57;4.10;;;3.80;;
3259;SDS011;68938;48.150;14.004;2023-07-28T02:30:25;7.17;;;4.13;;
3259;SDS011;68938;48.150;14.004;2023-07-28T02:32:52;4.30;;;4.00;;
3259;SDS011;68938;48.150;14.004;2023-07-28T02:35:19;4.83;;;4.53;;
3259;SDS011;68938;48.150;14.004;2023-07-28T02:37:48;4.27;;;3.97;;
3259;SDS011;68938;48.150;14.004;2023-07-28T02:40:17;4.20;;;3.90;;
3259;SDS011;68938;48.150;14.004;2023-07-28T02:42:44;6.37;;;4.93;;
3259;SDS011;68938;48.150;14.004;2023-07-28T02:45:13;4.63;;;4.13;;
3259;SDS011;68938;48.150;14.004;2023-07-28T02:47:40;4.73;;;4.43;;
3259;SDS011;68938;48.150;14.004;2023-07-28T02:50:08;5.60;;;4.77;;
3259;SDS011;68938;48.150;14.004;2023-07-28T02:52:37;4.90;;;4.50;;
3259;SDS011;68938;48.150;14.004;2023-07-28T02:55:05;5.60;;;5.23;;
3259;SDS011;68938;48.150;14.004;2023-07-28T02:57:35;4.53;;;4.20;;
3259;SDS011;68938;48.150;14.004;2023-07-28T03:00:05;5.53;;;4.60;;
3259;SDS011;68938;48.150;14.004;2023-07-28T03:02:34;4.67;;;4.33;;
3259;SDS011;68938;48.150;14.004;2023-07-28T03:05:01;4.70;;;4.30;;
3259;SDS011;68938;48.150;14.004;2023-07-28T03:07:28;4.80;;;4.40;;
3259;SDS011;68938;48.150;14.004;2023-07-28T03:09:57;5.27;;;4.77;;
3259;SDS011;68938;48.150;14.004;2023-07-28T03:12:25;5.57;;;5.07;;
3259;SDS011;68938;48.150;14.004;2023-07-28T03:14:52;4.93;;;4.57;;
3259;SDS011;68938;48.150;14.004;2023-07-28T03:17:20;5.50;;;5.10;;
3259;SDS011;68938;48.150;14.004;2023-07-28T03:19:48;5.80;;;4.73;;
3259;SDS011;68938;48.150;14.004;2023-07-28T03:22:17;5.30;;;4.90;;
3259;SDS011;68938;48.150;14.004;2023-07-28T03:24:46;4.83;;;4.53;;
3259;SDS011;68938;48.150;14.004;2023-07-28T03:27:13;5.50;;;5.10;;
3259;SDS011;68938;48.150;14.004;2023-07-28T03:29:41;5.13;;;4.73;;
3259;SDS011;68938;48.150;14.004;2023-07-28T03:32:08;5.33;;;4.80;;
3259;SDS011;68938;48.150;14.004;2023-07-28T03:34:37;5.13;;;4.60;;
3259;SDS011;68938;48.150;14.004;2023-07-28T03:37:04;5.80;;;5.20;;
3259;SDS011;68938;48.150;14.004;2023-07-28T03:39:32;5.60;;;4.00;;
3259;SDS011;68938;48.150;14.004;2023-07-28T03:41:59;6.57;;;5.23;;
3259;SDS011;68938;48.150;14.004;2023-07-28T03:44:29;7.80;;;5.30;;
3259;SDS011;68938;48.150;14.004;2023-07-28T03:46:58;5.45;;;5.00;;
3259;SDS011;68938;48.150;14.004;2023-07-28T03:49:27;5.07;;;4.67;;
3259;SDS011;68938;48.150;14.004;2023-07-28T03:51:54;4.90;;;4.50;;
3259;SDS011;68938;48.150;14.004;2023-07-28T03:54:22;5.43;;;4.83;;
3259;SDS011;68938;48.150;14.004;2023-07-28T03:56:49;6.00;;;4.80;;
3259;SDS011;68938;48.150;14.004;2023-07-28T03:59:16;5.67;;;5.17;;
3259;SDS011;68938;48.150;14.004;2023-07-28T04:01:45;4.93;;;4.50;;
3259;SDS011;68938;48.150;14.004;2023-07-28T04:04:12;7.63;;;5.80;;
3259;SDS011;68938;48.150;14.004;2023-07-28T04:06:44;5.40;;;5.00;;
3259;SDS011;68938;48.150;14.004;2023-07-28T04:09:16;5.83;;;5.43;;
3259;SDS011;68938;48.150;14.004;2023-07-28T04:11:46;6.07;;;4.97;;
3259;SDS011;68938;48.150;14.004;2023-07-28T04:14:14;6.13;;;5.73;;
3259;SDS011;68938;48.150;14.004;2023-07-28T04:16:42;5.33;;;4.83;;
3259;SDS011;68938;48.150;14.004;2023-07-28T04:19:10;5.70;;;5.20;;
3259;SDS011;68938;48.150;14.004;2023-07-28T04:21:37;6.67;;;5.87;;
3259;SDS011;68938;48.150;14.004;2023-07-28T04:24:07;7.40;;;5.73;;
3259;SDS011;68938;48.150;14.004;2023-07-28T04:26:35;6.70;;;6.10;;
3259;SDS011;68938;48.150;14.004;2023-07-28T04:29:04;7.33;;;5.60;;
3259;SDS011;68938;48.150;14.004;2023-07-28T04:31:33;21.77;;;7.50;;
3259;SDS011;68938;48.150;14.004;2023-07-28T04:34:01;9.30;;;6.00;;
3259;SDS011;68938;48.150;14.004;2023-07-28T04:36:29;7.20;;;6.50;;
3259;SDS011;68938;48.150;14.004;2023-07-28T04:38:57;6.27;;;5.63;;
3259;SDS011;68938;48.150;14.004;2023-07-28T04:41:24;6.00;;;5.50;;
3259;SDS011;68938;48.150;14.004;2023-07-28T04:43:51;5.80;;;5.30;;
3259;SDS011;68938;48.150;14.004;2023-07-28T04:46:19;5.80;;;5.30;;
3259;SDS011;68938;48.150;14.004;2023-07-28T04:49:14;5.23;;;4.83;;
3259;SDS011;68938;48.150;14.004;2023-07-28T04:51:42;7.67;;;5.60;;
3259;SDS011;68938;48.150;14.004;2023-07-28T04:54:12;5.30;;;4.87;;
3259;SDS011;68938;48.150;14.004;2023-07-28T04:56:41;7.77;;;6.07;;
3259;SDS011;68938;48.150;14.004;2023-07-28T04:59:07;6.17;;;5.77;;
3259;SDS011;68938;48.150;14.004;2023-07-28T05:01:35;6.00;;;5.57;;
3259;SDS011;68938;48.150;14.004;2023-07-28T05:04:02;5.60;;;5.17;;
3259;SDS011;68938;48.150;14.004;2023-07-28T05:06:30;6.23;;;5.73;;
3259;SDS011;68938;48.150;14.004;2023-07-28T05:08:57;6.37;;;4.80;;
3259;SDS011;68938;48.150;14.004;2023-07-28T05:11:25;6.20;;;5.63;;
3259;SDS011;68938;48.150;14.004;2023-07-28T05:13:54;5.60;;;5.07;;
3259;SDS011;68938;48.150;14.004;2023-07-28T05:16:23;5.60;;;5.10;;
3259;SDS011;68938;48.150;14.004;2023-07-28T05:18:51;6.27;;;5.60;;
3259;SDS011;68938;48.150;14.004;2023-07-28T05:21:18;5.87;;;5.27;;
3259;SDS011;68938;48.150;14.004;2023-07-28T05:23:46;5.10;;;4.70;;
3259;SDS011;68938;48.150;14.004;2023-07-28T05:26:14;4.90;;;4.57;;
3259;SDS011;68938;48.150;14.004;2023-07-28T05:28:41;4.90;;;4.50;;
3259;SDS011;68938;48.150;14.004;2023-07-28T05:31:08;4.50;;;4.10;;
3259;SDS011;68938;48.150;14.004;2023-07-28T05:33:38;5.03;;;4.60;;
3259;SDS011;68938;48.150;14.004;2023-07-28T05:36:06;4.80;;;4.33;;
3259;SDS011;68938;48.150;14.004;2023-07-28T05:38:33;4.83;;;4.50;;
3259;SDS011;68938;48.150;14.004;2023-07-28T05:41:02;4.63;;;4.23;;
3259;SDS011;68938;48.150;14.004;2023-07-28T05:43:31;5.30;;;4.80;;
3259;SDS011;68938;48.150;14.004;2023-07-28T05:45:59;5.93;;;4.70;;
3259;SDS011;68938;48.150;14.004;2023-07-28T05:48:27;5.30;;;4.80;;
3259;SDS011;68938;48.150;14.004;2023-07-28T05:50:54;4.60;;;4.13;;
3259;SDS011;68938;48.150;14.004;2023-07-28T05:53:22;3.93;;;3.70;;
3259;SDS011;68938;48.150;14.004;2023-07-28T05:55:50;5.43;;;4.10;;
3259;SDS011;68938;48.150;14.004;2023-07-28T05:58:18;4.57;;;4.13;;
3259;SDS011;68938;48.150;14.004;2023-07-28T06:00:46;4.40;;;3.90;;
3259;SDS011;68938;48.150;14.004;2023-07-28T06:03:14;4.93;;;4.53;;
3259;SDS011;68938;48.150;14.004;2023-07-28T06:05:41;5.40;;;4.40;;
3259;SDS011;68938;48.150;14.004;2023-07-28T06:08:08;4.37;;;3.93;;
3259;SDS011;68938;48.150;14.004;2023-07-28T06:10:36;3.80;;;3.50;;
3259;SDS011;68938;48.150;14.004;2023-07-28T06:13:05;5.03;;;4.57;;
3259;SDS011;68938;48.150;14.004;2023-07-28T06:15:33;4.33;;;3.90;;
3259;SDS011;68938;48.150;14.004;2023-07-28T06:18:00;4.43;;;4.03;;
3259;SDS011;68938;48.150;14.004;2023-07-28T06:20:29;4.10;;;3.83;;
3259;SDS011;68938;48.150;14.004;2023-07-28T06:22:57;4.77;;;3.90;;
3259;SDS011;68938;48.150;14.004;2023-07-28T06:25:25;5.27;;;4.03;;
3259;SDS011;68938;48.150;14.004;2023-07-28T06:27:52;3.83;;;3.53;;
3259;SDS011;68938;48.150;14.004;2023-07-28T06:30:20;4.60;;;4.20;;
3259;SDS011;68938;48.150;14.004;2023-07-28T06:32:47;4.70;;;4.40;;
3259;SDS011;68938;48.150;14.004;2023-07-28T06:35:14;3.60;;;3.30;;
3259;SDS011;68938;48.150;14.004;2023-07-28T06:37:42;3.50;;;3.20;;
3259;SDS011;68938;48.150;14.004;2023-07-28T06:40:09;3.77;;;3.53;;
3259;SDS011;68938;48.150;14.004;2023-07-28T06:42:37;4.43;;;3.50;;
3259;SDS011;68938;48.150;14.004;2023-07-28T06:45:04;3.33;;;3.13;;
3259;SDS011;68938;48.150;14.004;2023-07-28T06:47:31;4.73;;;3.40;;
3259;SDS011;68938;48.150;14.004;2023-07-28T06:49:58;3.40;;;3.20;;
3259;SDS011;68938;48.150;14.004;2023-07-28T06:52:26;3.47;;;3.27;;
3259;SDS011;68938;48.150;14.004;2023-07-28T06:54:53;3.87;;;2.93;;
3259;SDS011;68938;48.150;14.004;2023-07-28T06:57:20;3.53;;;3.33;;
3259;SDS011;68938;48.150;14.004;2023-07-28T06:59:48;2.90;;;2.70;;
3259;SDS011;68938;48.150;14.004;2023-07-28T07:02:17;3.53;;;3.23;;
3259;SDS011;68938;48.150;14.004;2023-07-28T07:04:45;3.50;;;3.23;;
3259;SDS011;68938;48.150;14.004;2023-07-28T07:07:13;3.67;;;3.27;;
3259;SDS011;68938;48.150;14.004;2023-07-28T07:09:40;3.97;;;3.77;;
3259;SDS011;68938;48.150;14.004;2023-07-28T07:12:10;3.83;;;3.57;;
3259;SDS011;68938;48.150;14.004;2023-07-28T07:14:37;3.83;;;3.60;;
3259;SDS011;68938;48.150;14.004;2023-07-28T07:17:06;4.40;;;3.30;;
3259;SDS011;68938;48.150;14.004;2023-07-28T07:19:33;4.00;;;3.17;;
3259;SDS011;68938;48.150;14.004;2023-07-28T07:22:01;3.20;;;3.00;;
3259;SDS011;68938;48.150;14.004;2023-07-28T07:24:28;3.37;;;3.07;;
3259;SDS011;68938;48.150;14.004;2023-07-28T07:26:55;3.13;;;2.93;;
3259;SDS011;68938;48.150;14.004;2023-07-28T07:29:23;3.00;;;2.80;;
3259;SDS011;68938;48.150;14.004;2023-07-28T07:31:50;4.20;;;3.60;;
3259;SDS011;68938;48.150;14.004;2023-07-28T07:34:17;7.10;;;3.73;;
3259;SDS011;68938;48.150;14.004;2023-07-28T07:36:45;4.20;;;3.73;;
3259;SDS011;68938;48.150;14.004;2023-07-28T07:39:12;3.63;;;3.43;;
3259;SDS011;68938;48.150;14.004;2023-07-28T07:41:39;4.03;;;3.53;;
3259;SDS011;68938;48.150;14.004;2023-07-28T07:44:07;4.60;;;3.33;;
3259;SDS011;68938;48.150;14.004;2023-07-28T07:46:35;3.93;;;2.70;;
3259;SDS011;68938;48.150;14.004;2023-07-28T07:49:02;3.20;;;3.00;;
3259;SDS011;68938;48.150;14.004;2023-07-28T07:51:29;3.73;;;2.70;;
3259;SDS011;68938;48.150;14.004;2023-07-28T07:53:57;2.97;;;2.70;;
3259;SDS011;68938;48.150;14.004;2023-07-28T07:56:25;3.50;;;3.10;;
3259;SDS011;68938;48.150;14.004;2023-07-28T07:58:52;3.17;;;2.73;;
3259;SDS011;68938;48.150;14.004;2023-07-28T08:01:20;3.77;;;3.50;;
3259;SDS011;68938;48.150;14.004;2023-07-28T08:03:47;3.77;;;3.50;;
3259;SDS011;68938;48.150;14.004;2023-07-28T08:06:14;2.87;;;2.73;;
3259;SDS011;68938;48.150;14.004;2023-07-28T08:08:42;2.97;;;2.73;;
3259;SDS011;68938;48.150;14.004;2023-07-28T08:11:10;4.43;;;3.03;;
3259;SDS011;68938;48.150;14.004;2023-07-28T08:13:38;2.97;;;2.77;;
3259;SDS011;68938;48.150;14.004;2023-07-28T08:16:05;2.87;;;2.67;;
3259;SDS011;68938;48.150;14.004;2023-07-28T08:18:32;3.13;;;2.93;;
3259;SDS011;68938;48.150;14.004;2023-07-28T08:20:59;3.70;;;2.90;;
3259;SDS011;68938;48.150;14.004;2023-07-28T08:23:27;3.40;;;3.20;;
3259;SDS011;68938;48.150;14.004;2023-07-28T08:25:53;2.93;;;2.70;;
3259;SDS011;68938;48.150;14.004;2023-07-28T08:28:23;3.50;;;3.30;;
3259;SDS011;68938;48.150;14.004;2023-07-28T08:30:55;2.73;;;2.53;;
3259;SDS011;68938;48.150;14.004;2023-07-28T08:33:22;3.10;;;2.90;;
3259;SDS011;68938;48.150;14.004;2023-07-28T08:35:51;3.50;;;3.20;;
3259;SDS011;68938;48.150;14.004;2023-07-28T08:38:19;3.17;;;2.80;;
3259;SDS011;68938;48.150;14.004;2023-07-28T08:40:46;3.07;;;2.87;;
3259;SDS011;68938;48.150;14.004;2023-07-28T08:43:15;3.20;;;3.00;;
3259;SDS011;68938;48.150;14.004;2023-07-28T08:45:43;2.80;;;2.70;;
3259;SDS011;68938;48.150;14.004;2023-07-28T08:48:10;3.17;;;2.97;;
3259;SDS011;68938;48.150;14.004;2023-07-28T08:50:37;3.67;;;2.87;;
3259;SDS011;68938;48.150;14.004;2023-07-28T08:53:06;3.33;;;3.10;;
3259;SDS011;68938;48.150;14.004;2023-07-28T08:55:33;3.20;;;2.90;;
3259;SDS011;68938;48.150;14.004;2023-07-28T08:58:19;3.73;;;2.80;;
3259;SDS011;68938;48.150;14.004;2023-07-28T09:00:50;3.20;;;3.00;;
3259;SDS011;68938;48.150;14.004;2023-07-28T09:03:19;3.33;;;3.13;;
3259;SDS011;68938;48.150;14.004;2023-07-28T09:05:47;3.83;;;3.50;;
3259;SDS011;68938;48.150;14.004;2023-07-28T09:08:15;3.43;;;3.23;;
3259;SDS011;68938;48.150;14.004;2023-07-28T09:13:15;3.87;;;3.57;;
3259;SDS011;68938;48.150;14.004;2023-07-28T09:15:45;3.80;;;3.60;;
3259;SDS011;68938;48.150;14.004;2023-07-28T09:18:17;3.10;;;2.80;;
3259;SDS011;68938;48.150;14.004;2023-07-28T09:20:44;3.80;;;3.60;;
3259;SDS011;68938;48.150;14.004;2023-07-28T09:23:13;3.63;;;3.43;;
3259;SDS011;68938;48.150;14.004;2023-07-28T09:25:41;6.27;;;3.67;;
3259;SDS011;68938;48.150;14.004;2023-07-28T09:28:11;3.53;;;3.30;;
3259;SDS011;68938;48.150;14.004;2023-07-28T09:30:48;3.67;;;3.47;;
3259;SDS011;68938;48.150;14.004;2023-07-28T09:33:28;3.33;;;3.03;;
3259;SDS011;68938;48.150;14.004;2023-07-28T09:36:09;3.40;;;3.20;;
3259;SDS011;68938;48.150;14.004;2023-07-28T09:38:41;4.83;;;3.30;;
3259;SDS011;68938;48.150;14.004;2023-07-28T09:41:09;4.60;;;3.97;;
3259;SDS011;68938;48.150;14.004;2023-07-28T09:43:39;3.20;;;2.90;;
3259;SDS011;68938;48.150;14.004;2023-07-28T09:46:08;3.13;;;3.03;;
3259;SDS011;68938;48.150;14.004;2023-07-28T09:48:38;3.10;;;2.90;;
3259;SDS011;68938;48.150;14.004;2023-07-28T09:51:08;3.70;;;3.40;;
3259;SDS011;68938;48.150;14.004;2023-07-28T09:54:28;3.40;;;3.23;;
3259;SDS011;68938;48.150;14.004;2023-07-28T09:56:50;3.73;;;3.53;;
3259;SDS011;68938;48.150;14.004;2023-07-28T09:59:19;2.83;;;2.73;;
3259;SDS011;68938;48.150;14.004;2023-07-28T10:01:48;3.33;;;3.10;;
3259;SDS011;68938;48.150;14.004;2023-07-28T10:04:15;5.40;;;3.80;;
3259;SDS011;68938;48.150;14.004;2023-07-28T10:06:43;3.33;;;2.93;;
3259;SDS011;68938;48.150;14.004;2023-07-28T10:09:11;3.00;;;2.90;;
3259;SDS011;68938;48.150;14.004;2023-07-28T10:11:38;6.97;;;3.30;;
3259;SDS011;68938;48.150;14.004;2023-07-28T10:14:05;3.07;;;2.97;;
3259;SDS011;68938;48.150;14.004;2023-07-28T10:16:40;3.53;;;3.33;;
3259;SDS011;68938;48.150;14.004;2023-07-28T10:19:07;2.80;;;2.60;;
3259;SDS011;68938;48.150;14.004;2023-07-28T10:21:39;2.90;;;2.80;;
3259;SDS011;68938;48.150;14.004;2023-07-28T10:24:06;2.80;;;2.70;;
3259;SDS011;68938;48.150;14.004;2023-07-28T10:26:40;2.97;;;2.70;;
3259;SDS011;68938;48.150;14.004;2023-07-28T10:29:15;2.43;;;2.33;;
3259;SDS011;68938;48.150;14.004;2023-07-28T10:31:53;2.83;;;2.63;;
3259;SDS011;68938;48.150;14.004;2023-07-28T10:34:22;2.10;;;2.00;;
3259;SDS011;68938;48.150;14.004;2023-07-28T10:36:58;3.33;;;3.13;;
3259;SDS011;68938;48.150;14.004;2023-07-28T10:39:26;2.80;;;2.70;;
3259;SDS011;68938;48.150;14.004;2023-07-28T10:44:32;3.10;;;2.90;;
3259;SDS011;68938;48.150;14.004;2023-07-28T10:47:00;2.83;;;2.60;;
3259;SDS011;68938;48.150;14.004;2023-07-28T10:49:28;2.90;;;2.70;;
3259;SDS011;68938;48.150;14.004;2023-07-28T10:51:56;4.10;;;2.77;;
3259;SDS011;68938;48.150;14.004;2023-07-28T10:54:23;2.90;;;2.67;;
3259;SDS011;68938;48.150;14.004;2023-07-28T10:56:50;3.00;;;2.80;;
3259;SDS011;68938;48.150;14.004;2023-07-28T10:59:18;3.00;;;2.80;;
3259;SDS011;68938;48.150;14.004;2023-07-28T11:01:45;3.17;;;3.00;;
3259;SDS011;68938;48.150;14.004;2023-07-28T11:06:42;3.00;;;2.80;;
3259;SDS011;68938;48.150;14.004;2023-07-28T11:09:18;2.87;;;2.67;;
3259;SDS011;68938;48.150;14.004;2023-07-28T11:11:49;2.90;;;2.70;;
3259;SDS011;68938;48.150;14.004;2023-07-28T11:14:17;3.17;;;2.97;;
3259;SDS011;68938;48.150;14.004;2023-07-28T11:16:45;2.47;;;2.27;;
3259;SDS011;68938;48.150;14.004;2023-07-28T11:19:13;2.37;;;2.27;;
3259;SDS011;68938;48.150;14.004;2023-07-28T11:21:41;2.57;;;2.37;;
3259;SDS011;68938;48.150;14.004;2023-07-28T11:24:10;2.60;;;2.40;;
3259;SDS011;68938;48.150;14.004;2023-07-28T11:26:38;2.57;;;2.37;;
3259;SDS011;68938;48.150;14.004;2023-07-28T11:29:07;2.90;;;2.70;;
3259;SDS011;68938;48.150;14.004;2023-07-28T11:31:34;2.90;;;2.60;;
3259;SDS011;68938;48.150;14.004;2023-07-28T11:34:02;2.57;;;2.37;;
3259;SDS011;68938;48.150;14.004;2023-07-28T11:36:39;3.20;;;3.00;;
3259;SDS011;68938;48.150;14.004;2023-07-28T11:39:08;2.40;;;2.30;;
3259;SDS011;68938;48.150;14.004;2023-07-28T11:41:36;2.77;;;2.67;;
3259;SDS011;68938;48.150;14.004;2023-07-28T11:44:05;2.53;;;2.43;;
3259;SDS011;68938;48.150;14.004;2023-07-28T11:46:37;2.60;;;2.50;;
3259;SDS011;68938;48.150;14.004;2023-07-28T11:51:38;5.40;;;2.50;;
3259;SDS011;68938;48.150;14.004;2023-07-28T11:54:11;2.90;;;2.70;;
3259;SDS011;68938;48.150;14.004;2023-07-28T11:56:44;3.23;;;3.03;;
3259;SDS011;68938;48.150;14.004;2023-07-28T11:59:16;3.20;;;2.90;;
3259;SDS011;68938;48.150;14.004;2023-07-28T12:01:53;3.97;;;3.67;;
3259;SDS011;68938;48.150;14.004;2023-07-28T12:04:25;2.30;;;2.20;;
3259;SDS011;68938;48.150;14.004;2023-07-28T12:12:16;2.47;;;2.27;;
3259;SDS011;68938;48.150;14.004;2023-07-28T12:14:47;3.67;;;3.40;;
3259;SDS011;68938;48.150;14.004;2023-07-28T12:17:35;3.60;;;3.40;;
3259;SDS011;68938;48.150;14.004;2023-07-28T12:20:08;3.60;;;3.40;;
3259;SDS011;68938;48.150;14.004;2023-07-28T12:22:38;3.17;;;3.07;;
3259;SDS011;68938;48.150;14.004;2023-07-28T12:25:07;2.80;;;2.60;;
3259;SDS011;68938;48.150;14.004;2023-07-28T12:27:36;3.53;;;3.33;;
3259;SDS011;68938;48.150;14.004;2023-07-28T12:30:05;2.83;;;2.63;;
3259;SDS011;68938;48.150;14.004;2023-07-28T12:32:41;2.63;;;2.53;;
3259;SDS011;68938;48.150;14.004;2023-07-28T12:35:26;3.20;;;3.00;;
3259;SDS011;68938;48.150;14.004;2023-07-28T12:37:58;3.57;;;2.90;;
3259;SDS011;68938;48.150;14.004;2023-07-28T12:40:29;3.03;;;2.90;;
3259;SDS011;68938;48.150;14.004;2023-07-28T12:43:02;3.67;;;3.37;;
3259;SDS011;68938;48.150;14.004;2023-07-28T12:45:32;8.90;;;3.40;;
3259;SDS011;68938;48.150;14.004;2023-07-28T12:48:02;3.07;;;2.87;;
3259;SDS011;68938;48.150;14.004;2023-07-28T12:50:29;2.93;;;2.73;;
3259;SDS011;68938;48.150;14.004;2023-07-28T12:53:07;2.87;;;2.77;;
3259;SDS011;68938;48.150;14.004;2023-07-28T12:55:42;3.60;;;3.30;;
3259;SDS011;68938;48.150;14.004;2023-07-28T12:58:12;3.83;;;3.63;;
3259;SDS011;68938;48.150;14.004;2023-07-28T13:00:43;3.50;;;3.27;;
3259;SDS011;68938;48.150;14.004;2023-07-28T13:03:13;3.37;;;3.00;;
3259;SDS011;68938;48.150;14.004;2023-07-28T13:05:40;3.20;;;3.00;;
3259;SDS011;68938;48.150;14.004;2023-07-28T13:08:07;3.03;;;2.93;;
3259;SDS011;68938;48.150;14.004;2023-07-28T13:10:35;4.03;;;3.83;;
3259;SDS011;68938;48.150;14.004;2023-07-28T13:13:06;3.03;;;2.93;;
3259;SDS011;68938;48.150;14.004;2023-07-28T13:15:40;2.97;;;2.77;;
3259;SDS011;68938;48.150;14.004;2023-07-28T13:18:07;3.03;;;2.83;;
3259;SDS011;68938;48.150;14.004;2023-07-28T13:20:34;3.17;;;3.07;;
3259;SDS011;68938;48.150;14.004;2023-07-28T13:23:02;3.20;;;3.10;;
3259;SDS011;68938;48.150;14.004;2023-07-28T13:25:29;4.00;;;3.70;;
3259;SDS011;68938;48.150;14.004;2023-07-28T13:27:56;3.50;;;3.30;;
3259;SDS011;68938;48.150;14.004;2023-07-28T13:30:23;2.60;;;2.47;;
3259;SDS011;68938;48.150;14.004;2023-07-28T13:32:54;3.03;;;2.83;;
3259;SDS011;68938;48.150;14.004;2023-07-28T13:35:22;3.10;;;2.90;;
3259;SDS011;68938;48.150;14.004;2023-07-28T13:37:49;3.47;;;3.27;;
3259;SDS011;68938;48.150;14.004;2023-07-28T13:40:17;3.70;;;3.50;;
3259;SDS011;68938;48.150;14.004;2023-07-28T13:42:45;3.90;;;3.70;;
3259;SDS011;68938;48.150;14.004;2023-07-28T13:45:13;3.77;;;3.47;;
3259;SDS011;68938;48.150;14.004;2023-07-28T13:47:40;3.43;;;3.23;;
3259;SDS011;68938;48.150;14.004;2023-07-28T13:50:08;5.90;;;2.93;;
3259;SDS011;68938;48.150;14.004;2023-07-28T13:52:35;4.10;;;3.70;;
3259;SDS011;68938;48.150;14.004;2023-07-28T13:55:02;4.83;;;3.40;;
3259;SDS011;68938;48.150;14.004;2023-07-28T13:57:33;3.30;;;3.10;;
3259;SDS011;68938;48.150;14.004;2023-07-28T14:00:00;3.77;;;3.57;;
3259;SDS011;68938;48.150;14.004;2023-07-28T14:02:28;3.23;;;3.03;;
3259;SDS011;68938;48.150;14.004;2023-07-28T14:04:56;4.40;;;3.97;;
3259;SDS011;68938;48.150;14.004;2023-07-28T14:07:23;3.03;;;2.90;;
3259;SDS011;68938;48.150;14.004;2023-07-28T14:09:51;3.60;;;3.40;;
3259;SDS011;68938;48.150;14.004;2023-07-28T14:12:19;4.10;;;3.80;;
3259;SDS011;68938;48.150;14.004;2023-07-28T14:14:47;3.57;;;3.30;;
3259;SDS011;68938;48.150;14.004;2023-07-28T14:17:15;4.87;;;3.60;;
3259;SDS011;68938;48.150;14.004;2023-07-28T14:19:42;5.20;;;3.80;;
3259;SDS011;68938;48.150;14.004;2023-07-28T14:22:09;4.00;;;3.70;;
3259;SDS011;68938;48.150;14.004;2023-07-28T14:24:37;3.77;;;3.00;;
3259;SDS011;68938;48.150;14.004;2023-07-28T14:27:07;4.00;;;3.40;;
3259;SDS011;68938;48.150;14.004;2023-07-28T14:29:34;3.23;;;3.03;;
3259;SDS011;68938;48.150;14.004;2023-07-28T14:32:01;4.70;;;3.57;;
3259;SDS011;68938;48.150;14.004;2023-07-28T14:34:28;4.07;;;3.77;;
3259;SDS011;68938;48.150;14.004;2023-07-28T14:36:56;3.97;;;3.70;;
3259;SDS011;68938;48.150;14.004;2023-07-28T14:39:23;3.30;;;3.10;;
3259;SDS011;68938;48.150;14.004;2023-07-28T14:41:50;3.70;;;3.40;;
3259;SDS011;68938;48.150;14.004;2023-07-28T14:44:17;4.30;;;3.30;;
3259;SDS011;68938;48.150;14.004;2023-07-28T14:46:45;3.53;;;3.33;;
3259;SDS011;68938;48.150;14.004;2023-07-28T14:49:13;3.30;;;3.00;;
3259;SDS011;68938;48.150;14.004;2023-07-28T14:51:41;3.43;;;3.23;;
3259;SDS011;68938;48.150;14.004;2023-07-28T14:54:08;4.07;;;3.33;;
3259;SDS011;68938;48.150;14.004;2023-07-28T14:56:35;3.47;;;3.27;;
3259;SDS011;68938;48.150;14.004;2023-07-28T14:59:02;3.60;;;3.30;;
3259;SDS011;68938;48.150;14.004;2023-07-28T15:01:31;3.83;;;3.53;;
3259;SDS011;68938;48.150;14.004;2023-07-28T15:03:59;3.47;;;2.93;;
3259;SDS011;68938;48.150;14.004;2023-07-28T15:06:29;4.07;;;3.83;;
3259;SDS011;68938;48.150;14.004;2023-07-28T15:08:57;4.50;;;3.60;;
3259;SDS011;68938;48.150;14.004;2023-07-28T15:11:25;3.80;;;3.60;;
3259;SDS011;68938;48.150;14.004;2023-07-28T15:13:53;3.17;;;3.03;;
3259;SDS011;68938;48.150;14.004;2023-07-28T15:16:21;3.83;;;3.53;;
3259;SDS011;68938;48.150;14.004;2023-07-28T15:18:48;3.63;;;3.40;;